Terminal Aerodrome Forecast
Issued by NWS

Home | Current Version | Previous Version | Text Only | Print | Product List | Glossary On
Versions: 1 2 3 4 5 6 7 8 9 10 11 12 13 14
000
FTAK31 PANC 260522
TAFAVD
TAF
PAVD 260522Z 2606/2706 VRB03KT P6SM SCT060 BKN120
     FM262100 07008KT P6SM VCSH SCT040 OVC070
     FM270300 VRB04KT P6SM -SHRA SCT030 OVC050
      AMD LTD TO CLD VIS AND WIND=

USA.gov is the U.S. government's official web portal to all federal, state and local government web resources and services.